createdAt,value
2022-08-17T00:01:26.307Z,4.00
2022-08-17T00:03:54.434Z,3.63
2022-08-17T00:06:27.592Z,3.95
2022-08-17T00:09:00.716Z,3.63
2022-08-17T00:11:30.699Z,3.78
2022-08-17T00:14:05.146Z,4.07
2022-08-17T00:16:56.667Z,3.90
2022-08-17T00:19:24.640Z,3.88
2022-08-17T00:22:34.559Z,4.03
2022-08-17T00:24:39.829Z,4.10
2022-08-17T00:27:06.364Z,3.85
2022-08-17T00:29:32.893Z,3.80
2022-08-17T00:32:01.252Z,3.90
2022-08-17T00:34:47.881Z,4.20
2022-08-17T00:37:14.418Z,4.55
2022-08-17T00:39:41.348Z,3.90
2022-08-17T00:42:19.108Z,3.88
2022-08-17T00:44:46.090Z,4.28
2022-08-17T00:47:12.692Z,4.45
2022-08-17T00:49:39.514Z,4.25
2022-08-17T00:52:15.442Z,3.97
2022-08-17T00:54:44.782Z,3.97
2022-08-17T00:57:18.242Z,4.07
2022-08-17T00:59:56.058Z,4.22
2022-08-17T01:02:42.532Z,3.90
2022-08-17T01:05:17.166Z,4.35
2022-08-17T01:07:47.961Z,4.00
2022-08-17T01:11:00.423Z,4.32
2022-08-17T01:13:04.378Z,4.10
2022-08-17T01:15:35.388Z,4.18
2022-08-17T01:18:02.583Z,4.03
2022-08-17T01:20:29.626Z,4.00
2022-08-17T01:22:56.205Z,4.18
2022-08-17T01:25:22.886Z,4.28
2022-08-17T01:27:50.082Z,4.03
2022-08-17T01:30:56.741Z,4.05
2022-08-17T01:33:04.380Z,3.85
2022-08-17T01:35:30.983Z,4.20
2022-08-17T01:37:57.524Z,4.20
2022-08-17T01:40:46.480Z,4.30
2022-08-17T01:43:21.624Z,4.35
2022-08-17T01:46:03.369Z,4.35
2022-08-17T01:48:38.574Z,4.47
2022-08-17T01:51:07.226Z,4.18
2022-08-17T01:53:41.494Z,3.90
2022-08-17T01:56:11.174Z,3.95
2022-08-17T01:58:39.477Z,4.00
2022-08-17T02:01:07.223Z,4.22
2022-08-17T02:03:35.781Z,4.22
2022-08-17T02:06:03.415Z,4.13
2022-08-17T02:08:38.804Z,4.20
2022-08-17T02:11:11.552Z,4.40
2022-08-17T02:13:39.220Z,3.95
2022-08-17T02:16:06.263Z,3.92
2022-08-17T02:18:33.028Z,4.00
2022-08-17T02:20:59.970Z,4.82
2022-08-17T02:23:30.580Z,4.28
2022-08-17T02:25:59.618Z,3.78
2022-08-17T02:28:26.660Z,4.63
2022-08-17T02:31:01.640Z,4.40
2022-08-17T02:33:41.784Z,4.10
2022-08-17T02:36:11.427Z,4.28
2022-08-17T02:38:39.449Z,4.18
2022-08-17T02:41:06.170Z,4.05
2022-08-17T02:43:32.951Z,4.32
2022-08-17T02:45:59.555Z,4.22
2022-08-17T02:48:31.157Z,4.18
2022-08-17T02:50:58.857Z,4.18
2022-08-17T02:53:25.627Z,4.30
2022-08-17T02:55:53.196Z,4.38
2022-08-17T02:58:34.549Z,4.50
2022-08-17T03:01:03.462Z,4.63
2022-08-17T03:03:30.116Z,4.55
2022-08-17T03:05:56.896Z,4.68
2022-08-17T03:08:23.862Z,4.35
2022-08-17T03:10:50.601Z,4.55
2022-08-17T03:13:17.597Z,4.78
2022-08-17T03:15:45.460Z,4.50
2022-08-17T03:18:24.088Z,4.43
2022-08-17T03:23:24.038Z,4.55
2022-08-17T03:25:52.962Z,4.55
2022-08-17T03:28:20.869Z,4.53
2022-08-17T03:30:47.385Z,4.80
2022-08-17T03:33:14.773Z,4.78
2022-08-17T03:35:42.076Z,4.25
2022-08-17T03:38:10.417Z,4.45
2022-08-17T03:40:57.891Z,4.78
2022-08-17T03:43:24.795Z,4.57
2022-08-17T03:46:24.006Z,4.60
2022-08-17T03:49:17.084Z,4.47
2022-08-17T03:52:02.020Z,4.43
2022-08-17T03:54:47.219Z,4.10
2022-08-17T03:57:13.991Z,4.90
2022-08-17T03:59:41.145Z,4.22
2022-08-17T04:02:15.939Z,5.03
2022-08-17T04:04:42.743Z,4.43
2022-08-17T04:07:09.485Z,5.03
2022-08-17T04:09:36.659Z,4.40
2022-08-17T04:12:05.186Z,5.05
2022-08-17T04:14:36.483Z,4.53
2022-08-17T04:17:19.796Z,4.65
2022-08-17T04:19:46.710Z,4.70
2022-08-17T04:22:30.205Z,4.30
2022-08-17T04:25:07.515Z,4.70
2022-08-17T04:27:34.284Z,4.35
2022-08-17T04:30:01.645Z,4.45
2022-08-17T04:33:05.050Z,4.30
2022-08-17T04:35:21.734Z,4.25
2022-08-17T04:37:48.574Z,4.60
2022-08-17T04:40:33.866Z,4.47
2022-08-17T04:43:02.783Z,4.82
2022-08-17T04:45:31.986Z,4.75
2022-08-17T04:48:01.092Z,4.53
2022-08-17T04:50:27.834Z,4.30
2022-08-17T04:52:54.606Z,4.32
2022-08-17T04:55:21.586Z,4.47
2022-08-17T04:57:48.236Z,4.60
2022-08-17T05:00:15.170Z,5.18
2022-08-17T05:02:50.615Z,4.53
2022-08-17T05:05:30.642Z,4.60
2022-08-17T05:08:00.012Z,4.47
2022-08-17T05:10:29.364Z,4.60
2022-08-17T05:13:01.105Z,4.97
2022-08-17T05:15:29.333Z,5.00
2022-08-17T05:17:59.910Z,4.55
2022-08-17T05:20:27.022Z,4.70
2022-08-17T05:23:01.076Z,4.43
2022-08-17T05:25:32.799Z,4.50
2022-08-17T05:28:04.878Z,4.78
2022-08-17T05:30:33.982Z,5.20
2022-08-17T05:33:02.379Z,4.85
2022-08-17T05:35:32.049Z,4.50
2022-08-17T05:37:58.996Z,4.63
2022-08-17T05:40:25.985Z,4.68
2022-08-17T05:43:04.658Z,4.22
2022-08-17T05:45:54.668Z,4.90
2022-08-17T05:48:19.547Z,5.18
2022-08-17T05:51:01.139Z,4.50
2022-08-17T05:53:50.884Z,4.38
2022-08-17T05:56:52.954Z,4.72
2022-08-17T05:59:39.484Z,4.32
2022-08-17T06:02:42.031Z,4.93
2022-08-17T06:05:18.239Z,4.43
2022-08-17T06:07:49.801Z,4.50
2022-08-17T06:10:32.427Z,4.80
2022-08-17T06:13:04.121Z,4.47
2022-08-17T06:15:48.617Z,4.30
2022-08-17T06:18:19.219Z,4.47
2022-08-17T06:20:51.837Z,4.68
2022-08-17T06:23:29.495Z,4.57
2022-08-17T06:26:03.748Z,4.30
2022-08-17T06:28:47.053Z,4.72
2022-08-17T06:31:22.602Z,4.45
2022-08-17T06:33:50.303Z,5.22
2022-08-17T06:37:09.358Z,4.60
2022-08-17T06:39:51.074Z,4.55
2022-08-17T06:42:55.009Z,4.65
2022-08-17T06:45:42.006Z,4.53
2022-08-17T06:48:36.250Z,4.80
2022-08-17T06:51:13.384Z,4.35
2022-08-17T06:53:52.542Z,4.95
2022-08-17T06:56:53.207Z,4.05
2022-08-17T06:59:25.093Z,4.43
2022-08-17T07:01:53.092Z,4.50
2022-08-17T07:04:24.295Z,4.25
2022-08-17T07:06:59.182Z,4.03
2022-08-17T07:09:31.315Z,4.40
2022-08-17T07:12:20.524Z,4.60
2022-08-17T07:14:59.633Z,4.75
2022-08-17T07:17:46.894Z,4.28
2022-08-17T07:20:22.536Z,4.68
2022-08-17T07:22:59.586Z,4.57
2022-08-17T07:25:27.575Z,4.60
2022-08-17T07:27:59.817Z,4.43
2022-08-17T07:31:00.787Z,4.93
2022-08-17T07:33:33.590Z,4.70
2022-08-17T07:36:00.307Z,4.70
2022-08-17T07:38:33.283Z,4.90
2022-08-17T07:41:06.496Z,5.07
2022-08-17T07:43:41.922Z,5.22
2022-08-17T07:46:30.238Z,4.90
2022-08-17T07:49:25.097Z,5.53
2022-08-17T07:51:51.640Z,5.20
2022-08-17T07:54:37.375Z,4.97
2022-08-17T07:57:13.216Z,5.55
2022-08-17T08:00:03.845Z,5.60
2022-08-17T08:02:34.203Z,6.05
2022-08-17T08:05:03.323Z,5.45
2022-08-17T08:07:50.423Z,5.30
2022-08-17T08:10:38.956Z,5.82
2022-08-17T08:13:20.681Z,5.65
2022-08-17T08:15:53.644Z,5.50
2022-08-17T08:18:53.538Z,5.85
2022-08-17T08:21:31.619Z,5.70
2022-08-17T08:24:36.776Z,5.30
2022-08-17T08:27:11.569Z,6.20
2022-08-17T08:29:44.236Z,6.53
2022-08-17T08:32:45.350Z,5.18
2022-08-17T08:35:44.400Z,6.85
2022-08-17T08:38:23.747Z,5.90
2022-08-17T08:41:12.822Z,5.90
2022-08-17T08:43:50.871Z,6.65
2022-08-17T08:46:55.233Z,6.80
2022-08-17T08:49:59.536Z,5.90
2022-08-17T08:52:35.643Z,6.45
2022-08-17T08:55:35.614Z,6.15
2022-08-17T08:58:31.759Z,6.15
2022-08-17T09:01:08.905Z,6.20
2022-08-17T09:04:25.600Z,6.38
2022-08-17T09:07:15.960Z,5.90
2022-08-17T09:10:13.624Z,7.00
2022-08-17T09:13:10.295Z,6.97
2022-08-17T09:15:57.331Z,6.53
2022-08-17T09:18:59.842Z,6.72
2022-08-17T09:21:48.198Z,6.70
2022-08-17T09:24:44.242Z,6.82
2022-08-17T09:27:16.443Z,6.50
2022-08-17T09:29:48.761Z,6.75
2022-08-17T09:32:22.372Z,6.47
2022-08-17T09:34:57.251Z,6.28
2022-08-17T09:37:35.707Z,6.50
2022-08-17T09:40:24.554Z,6.97
2022-08-17T09:43:03.781Z,7.30
2022-08-17T09:45:50.753Z,6.40
2022-08-17T09:48:28.827Z,6.50
2022-08-17T09:51:15.786Z,6.47
2022-08-17T09:53:44.788Z,6.32
2022-08-17T09:56:56.528Z,7.10
2022-08-17T09:59:49.200Z,6.45
2022-08-17T10:02:50.569Z,8.18
2022-08-17T10:05:45.447Z,7.40
2022-08-17T10:08:32.633Z,7.43
2022-08-17T10:11:11.963Z,7.20
2022-08-17T10:13:59.760Z,7.23
2022-08-17T10:16:45.479Z,7.60
2022-08-17T10:19:44.125Z,7.97
2022-08-17T10:23:06.233Z,6.75
2022-08-17T10:25:55.882Z,7.75
2022-08-17T10:28:29.807Z,8.00
2022-08-17T10:33:59.140Z,7.22
2022-08-17T10:37:05.808Z,7.13
2022-08-17T10:39:51.892Z,7.15
2022-08-17T10:42:32.427Z,7.70
2022-08-17T10:45:06.708Z,7.13
2022-08-17T10:48:05.287Z,7.90
2022-08-17T10:51:08.746Z,8.57
2022-08-17T10:53:35.247Z,8.18
2022-08-17T10:56:14.149Z,8.93
2022-08-17T10:58:58.809Z,8.63
2022-08-17T11:01:34.342Z,8.80
2022-08-17T11:04:30.217Z,7.72
2022-08-17T11:07:25.710Z,8.50
2022-08-17T11:10:24.357Z,7.82
2022-08-17T11:13:28.154Z,7.20
2022-08-17T11:16:28.584Z,6.82
2022-08-17T11:19:17.034Z,7.13
2022-08-17T11:21:55.745Z,7.18
2022-08-17T11:24:35.219Z,7.07
2022-08-17T11:27:22.349Z,7.25
2022-08-17T11:30:02.204Z,6.68
2022-08-17T11:32:32.229Z,7.50
2022-08-17T11:35:07.568Z,7.03
2022-08-17T11:38:14.073Z,7.57
2022-08-17T11:41:01.464Z,7.13
2022-08-17T11:43:37.388Z,6.28
2022-08-17T11:46:15.137Z,7.55
2022-08-17T11:49:16.744Z,6.03
2022-08-17T11:52:01.790Z,6.70
2022-08-17T11:54:33.864Z,6.60
2022-08-17T11:57:26.030Z,6.63
2022-08-17T12:00:09.208Z,6.40
2022-08-17T12:02:48.133Z,5.88
2022-08-17T12:05:17.947Z,6.03
2022-08-17T12:07:53.875Z,5.67
2022-08-17T12:10:31.958Z,5.70
2022-08-17T12:13:02.296Z,6.05
2022-08-17T12:15:40.663Z,5.35
2022-08-17T12:18:07.273Z,5.18
2022-08-17T12:20:45.105Z,6.18
2022-08-17T12:23:41.900Z,4.97
2022-08-17T12:26:17.358Z,5.43
2022-08-17T12:28:46.745Z,4.90
2022-08-17T12:31:20.238Z,4.47
2022-08-17T12:33:48.065Z,4.40
2022-08-17T12:36:17.197Z,4.93
2022-08-17T12:39:12.889Z,4.70
2022-08-17T12:41:47.134Z,4.88
2022-08-17T12:44:19.980Z,4.68
2022-08-17T12:46:58.982Z,4.75
2022-08-17T12:49:30.691Z,4.35
2022-08-17T12:52:04.915Z,4.43
2022-08-17T12:54:51.010Z,4.65
2022-08-17T12:57:22.982Z,4.60
2022-08-17T12:59:54.058Z,4.60
2022-08-17T13:02:28.803Z,4.45
2022-08-17T13:04:58.910Z,4.35
2022-08-17T13:07:32.294Z,4.75
2022-08-17T13:09:58.923Z,4.68
2022-08-17T13:12:30.946Z,4.40
2022-08-17T13:14:59.437Z,4.63
2022-08-17T13:17:36.069Z,5.38
2022-08-17T13:20:13.353Z,4.65
2022-08-17T13:22:40.229Z,4.50
2022-08-17T13:25:15.951Z,4.72
2022-08-17T13:27:43.373Z,4.43
2022-08-17T13:30:12.343Z,4.63
2022-08-17T13:32:46.451Z,4.85
2022-08-17T13:35:39.305Z,5.13
2022-08-17T13:38:09.500Z,4.90
2022-08-17T13:40:49.204Z,4.32
2022-08-17T13:43:39.525Z,4.57
2022-08-17T13:46:12.373Z,4.53
2022-08-17T13:48:40.187Z,3.95
2022-08-17T13:51:14.228Z,4.07
2022-08-17T13:53:40.762Z,4.03
2022-08-17T13:56:37.787Z,4.40
2022-08-17T13:59:11.532Z,3.92
2022-08-17T14:01:47.483Z,4.20
2022-08-17T14:04:28.018Z,4.70
2022-08-17T14:07:11.563Z,4.50
2022-08-17T14:09:43.304Z,4.40
2022-08-17T14:12:12.630Z,4.00
2022-08-17T14:14:39.685Z,4.25
2022-08-17T14:17:07.858Z,4.10
2022-08-17T14:19:34.954Z,3.80
2022-08-17T14:22:02.150Z,3.50
2022-08-17T14:24:35.280Z,4.22
2022-08-17T14:27:03.653Z,4.00
2022-08-17T14:29:32.279Z,4.07
2022-08-17T14:32:05.018Z,4.50
2022-08-17T14:34:31.575Z,4.07
2022-08-17T14:36:58.577Z,3.65
2022-08-17T14:39:25.290Z,3.70
2022-08-17T14:41:53.005Z,3.50
2022-08-17T14:44:19.608Z,3.70
2022-08-17T14:46:46.168Z,3.92
2022-08-17T14:49:13.363Z,3.60
2022-08-17T14:51:43.676Z,4.05
2022-08-17T14:54:33.461Z,3.72
2022-08-17T14:57:02.887Z,3.38
2022-08-17T14:59:47.296Z,3.70
2022-08-17T15:02:17.345Z,3.38
2022-08-17T15:04:45.916Z,3.58
2022-08-17T15:07:12.462Z,3.60
2022-08-17T15:09:39.188Z,3.42
2022-08-17T15:12:09.071Z,3.78
2022-08-17T15:17:03.726Z,3.65
2022-08-17T15:19:30.265Z,3.85
2022-08-17T15:21:56.854Z,3.40
2022-08-17T15:24:23.604Z,3.42
2022-08-17T15:26:51.387Z,3.60
2022-08-17T15:29:17.958Z,3.00
2022-08-17T15:31:44.953Z,3.20
2022-08-17T15:34:11.935Z,3.50
2022-08-17T15:36:38.924Z,3.67
2022-08-17T15:39:15.610Z,3.88
2022-08-17T15:41:47.290Z,3.45
2022-08-17T15:44:32.630Z,3.83
2022-08-17T15:47:01.996Z,3.35
2022-08-17T15:49:28.781Z,3.30
2022-08-17T15:51:55.653Z,3.72
2022-08-17T15:54:23.379Z,3.42
2022-08-17T15:56:50.623Z,3.20
2022-08-17T15:59:17.176Z,3.33
2022-08-17T16:03:01.655Z,3.50
2022-08-17T16:04:31.895Z,3.55
2022-08-17T16:06:59.931Z,3.40
2022-08-17T16:09:26.996Z,4.00
2022-08-17T16:11:56.291Z,3.85
2022-08-17T16:14:24.555Z,3.85
2022-08-17T16:17:00.681Z,4.00
2022-08-17T16:19:27.307Z,3.63
2022-08-17T16:21:53.840Z,4.53
2022-08-17T16:24:20.601Z,3.67
2022-08-17T16:26:47.157Z,3.75
2022-08-17T16:29:14.105Z,3.65
2022-08-17T16:31:41.945Z,4.00
2022-08-17T16:34:18.000Z,4.72
2022-08-17T16:36:55.519Z,4.78
2022-08-17T16:39:25.493Z,3.80
2022-08-17T16:41:52.115Z,3.47
2022-08-17T16:44:20.874Z,3.90
2022-08-17T16:46:50.267Z,3.55
2022-08-17T16:49:35.773Z,4.30
2022-08-17T16:52:04.035Z,4.20
2022-08-17T16:54:30.683Z,3.63
2022-08-17T16:56:57.378Z,3.70
2022-08-17T16:59:30.978Z,4.20
2022-08-17T17:02:04.871Z,4.07
2022-08-17T17:04:35.125Z,3.83
2022-08-17T17:07:16.986Z,3.80
2022-08-17T17:09:47.532Z,4.25
2022-08-17T17:12:18.518Z,4.13
2022-08-17T17:14:48.149Z,3.85
2022-08-17T17:17:29.578Z,4.20
2022-08-17T17:20:09.913Z,4.68
2022-08-17T17:22:48.126Z,4.20
2022-08-17T17:25:33.270Z,4.20
2022-08-17T17:28:15.250Z,4.65
2022-08-17T17:31:05.717Z,4.50
2022-08-17T17:33:40.485Z,4.85
2022-08-17T17:36:33.735Z,4.50
2022-08-17T17:39:06.363Z,4.93
2022-08-17T17:41:42.014Z,5.18
2022-08-17T17:44:15.324Z,4.68
2022-08-17T17:46:52.092Z,4.30
2022-08-17T17:49:20.205Z,4.55
2022-08-17T17:52:23.201Z,4.63
2022-08-17T17:55:31.529Z,4.55
2022-08-17T17:58:17.949Z,4.38
2022-08-17T18:00:51.363Z,4.35
2022-08-17T18:03:31.232Z,4.50
2022-08-17T18:08:54.793Z,4.35
2022-08-17T18:14:33.257Z,4.40
2022-08-17T18:17:00.697Z,4.30
2022-08-17T18:19:30.163Z,5.07
2022-08-17T18:22:06.677Z,5.95
2022-08-17T18:24:37.997Z,4.90
2022-08-17T18:27:23.727Z,4.85
2022-08-17T18:29:53.584Z,4.65
2022-08-17T18:32:31.855Z,4.00
2022-08-17T18:35:18.367Z,4.90
2022-08-17T18:37:47.534Z,4.50
2022-08-17T18:40:17.240Z,4.50
2022-08-17T18:43:04.292Z,4.70
2022-08-17T18:45:41.180Z,4.97
2022-08-17T18:48:20.463Z,5.22
2022-08-17T18:50:47.245Z,4.95
2022-08-17T18:53:21.023Z,5.47
2022-08-17T18:56:13.703Z,5.28
2022-08-17T18:58:40.382Z,4.72
2022-08-17T19:01:18.782Z,5.45
2022-08-17T19:03:46.094Z,5.05
2022-08-17T19:06:28.363Z,5.03
2022-08-17T19:08:55.027Z,5.30
2022-08-17T19:11:30.251Z,5.15
2022-08-17T19:14:16.772Z,5.60
2022-08-17T19:16:55.244Z,4.80
2022-08-17T19:19:38.102Z,5.43
2022-08-17T19:22:28.905Z,5.25
2022-08-17T19:25:05.989Z,5.18
2022-08-17T19:30:24.681Z,5.47
2022-08-17T19:32:51.504Z,5.60
2022-08-17T19:35:20.313Z,5.95
2022-08-17T19:38:18.365Z,6.03
2022-08-17T19:41:05.129Z,6.40
2022-08-17T19:43:48.084Z,6.35
2022-08-17T19:46:49.886Z,7.85
2022-08-17T19:49:33.273Z,6.68
2022-08-17T19:52:38.860Z,6.68
2022-08-17T19:55:18.307Z,7.13
2022-08-17T19:58:19.177Z,6.65
2022-08-17T20:00:50.671Z,7.05
2022-08-17T20:03:41.663Z,6.90
2022-08-17T20:06:13.731Z,6.40
2022-08-17T20:09:12.936Z,6.85
2022-08-17T20:11:54.794Z,6.25
2022-08-17T20:14:53.819Z,6.95
2022-08-17T20:17:28.129Z,6.93
2022-08-17T20:20:27.853Z,6.72
2022-08-17T20:23:07.716Z,6.90
2022-08-17T20:26:02.830Z,7.55
2022-08-17T20:28:35.007Z,8.93
2022-08-17T20:31:05.957Z,8.30
2022-08-17T20:33:38.758Z,7.07
2022-08-17T20:36:11.510Z,7.07
2022-08-17T20:38:49.489Z,7.20
2022-08-17T20:41:34.357Z,7.82
2022-08-17T20:44:04.776Z,7.78
2022-08-17T20:46:40.520Z,8.10
2022-08-17T20:49:27.115Z,6.65
2022-08-17T20:52:02.550Z,6.25
2022-08-17T20:54:47.769Z,6.18
2022-08-17T20:57:32.515Z,6.40
2022-08-17T21:00:06.335Z,5.88
2022-08-17T21:02:33.128Z,5.97
2022-08-17T21:05:05.501Z,5.97
2022-08-17T21:07:53.934Z,6.22
2022-08-17T21:10:23.654Z,6.20
2022-08-17T21:13:08.468Z,6.18
2022-08-17T21:16:12.864Z,6.03
2022-08-17T21:19:01.062Z,6.05
2022-08-17T21:21:41.566Z,6.28
2022-08-17T21:24:34.917Z,6.18
2022-08-17T21:27:23.462Z,6.15
2022-08-17T21:30:14.836Z,5.90
2022-08-17T21:32:43.495Z,6.15
2022-08-17T21:35:19.333Z,5.80
2022-08-17T21:37:48.292Z,5.90
2022-08-17T21:40:18.327Z,5.90
2022-08-17T21:45:29.308Z,5.90
2022-08-17T21:48:09.081Z,6.20
2022-08-17T21:50:36.057Z,6.60
2022-08-17T21:53:04.065Z,5.95
2022-08-17T21:55:34.051Z,6.75
2022-08-17T21:58:13.800Z,6.10
2022-08-17T22:00:44.411Z,6.70
2022-08-17T22:03:23.869Z,6.75
2022-08-17T22:05:51.559Z,6.35
2022-08-17T22:08:22.367Z,6.18
2022-08-17T22:10:51.189Z,6.93
2022-08-17T22:13:17.844Z,6.55
2022-08-17T22:16:29.083Z,6.40
2022-08-17T22:18:54.046Z,6.25
2022-08-17T22:21:22.568Z,6.75
2022-08-17T22:24:06.378Z,6.25
2022-08-17T22:26:59.709Z,6.20
2022-08-17T22:29:47.075Z,6.13
2022-08-17T22:32:34.441Z,6.32
2022-08-17T22:35:34.525Z,7.22
2022-08-17T22:38:19.125Z,7.28
2022-08-17T22:40:49.731Z,7.68
2022-08-17T22:43:21.325Z,8.02
2022-08-17T22:45:55.416Z,7.85
2022-08-17T22:48:28.346Z,8.13
2022-08-17T22:51:12.368Z,7.95
2022-08-17T22:54:05.247Z,7.72
2022-08-17T22:56:50.905Z,8.18
2022-08-17T22:59:43.797Z,7.72
2022-08-17T23:02:21.167Z,7.80
2022-08-17T23:04:51.908Z,8.43
2022-08-17T23:07:23.006Z,8.57
2022-08-17T23:09:51.570Z,8.32
2022-08-17T23:12:24.472Z,9.48
2022-08-17T23:14:57.363Z,9.38
2022-08-17T23:17:24.467Z,8.80
2022-08-17T23:19:51.051Z,9.00
2022-08-17T23:22:17.623Z,9.38
2022-08-17T23:24:48.894Z,9.52
2022-08-17T23:27:15.637Z,10.48
2022-08-17T23:29:42.288Z,9.82
2022-08-17T23:32:15.074Z,9.90
2022-08-17T23:34:43.824Z,9.55
2022-08-17T23:37:11.883Z,9.77
2022-08-17T23:39:39.394Z,10.18
2022-08-17T23:42:10.735Z,9.98
2022-08-17T23:44:39.886Z,10.23
2022-08-17T23:47:07.732Z,10.77
2022-08-17T23:49:36.116Z,10.40
2022-08-17T23:52:06.583Z,9.82
2022-08-17T23:54:41.574Z,10.10
2022-08-17T23:57:09.206Z,10.00
2022-08-17T23:59:37.148Z,10.05
